createdAt,value
2022-09-12T00:01:19.686Z,100.00
2022-09-12T00:03:46.709Z,100.00
2022-09-12T00:06:21.962Z,100.00
2022-09-12T00:08:50.110Z,100.00
2022-09-12T00:11:16.700Z,100.00
2022-09-12T00:13:43.849Z,100.00
2022-09-12T00:16:22.897Z,100.00
2022-09-12T00:18:49.964Z,100.00
2022-09-12T00:21:18.111Z,100.00
2022-09-12T00:23:45.396Z,100.00
2022-09-12T00:26:12.955Z,99.30
2022-09-12T00:28:41.095Z,100.00
2022-09-12T00:31:14.421Z,100.00
2022-09-12T00:33:41.994Z,100.00
2022-09-12T00:36:15.265Z,100.00
2022-09-12T00:38:43.622Z,99.50
2022-09-12T00:41:22.291Z,100.00
2022-09-12T00:43:52.022Z,99.34
2022-09-12T00:46:48.688Z,100.00
2022-09-12T00:49:23.929Z,100.00
2022-09-12T00:52:03.471Z,100.00
2022-09-12T00:54:47.553Z,100.00
2022-09-12T00:57:16.564Z,100.00
2022-09-12T00:59:58.416Z,100.00
2022-09-12T01:02:25.423Z,100.00
2022-09-12T01:04:52.807Z,100.00
2022-09-12T01:07:21.341Z,100.00
2022-09-12T01:09:48.139Z,100.00
2022-09-12T01:12:16.017Z,100.00
2022-09-12T01:14:42.876Z,100.00
2022-09-12T01:17:13.034Z,100.00
2022-09-12T01:20:29.540Z,100.00
2022-09-12T01:22:59.103Z,100.00
2022-09-12T01:25:58.771Z,100.00
2022-09-12T01:28:34.240Z,100.00
2022-09-12T01:31:13.460Z,100.00
2022-09-12T01:33:42.701Z,100.00
2022-09-12T01:36:49.580Z,100.00
2022-09-12T01:39:29.258Z,100.00
2022-09-12T01:42:04.686Z,99.50
2022-09-12T01:44:37.166Z,100.00
2022-09-12T01:47:15.760Z,100.00
2022-09-12T01:50:06.966Z,100.00
2022-09-12T01:52:42.612Z,100.00
2022-09-12T01:55:21.704Z,100.00
2022-09-12T01:57:57.596Z,100.00
2022-09-12T02:00:24.371Z,100.00
2022-09-12T02:03:14.849Z,100.00
2022-09-12T02:05:48.976Z,100.00
2022-09-12T02:08:31.457Z,100.00
2022-09-12T02:11:04.595Z,100.00
2022-09-12T02:13:33.767Z,100.00
2022-09-12T02:16:09.546Z,100.00
2022-09-12T02:18:40.639Z,100.00
2022-09-12T02:21:07.966Z,100.00
2022-09-12T02:23:41.077Z,100.00
2022-09-12T02:26:15.238Z,100.00
2022-09-12T02:28:43.596Z,99.87
2022-09-12T02:31:32.298Z,98.90
2022-09-12T02:34:11.698Z,100.00
2022-09-12T02:37:16.432Z,100.00
2022-09-12T02:39:45.315Z,100.00
2022-09-12T02:42:13.349Z,100.00
2022-09-12T02:44:40.579Z,100.00
2022-09-12T02:47:28.284Z,100.00
2022-09-12T02:49:56.386Z,100.00
2022-09-12T02:52:23.404Z,100.00
2022-09-12T02:54:51.079Z,100.00
2022-09-12T02:57:22.791Z,100.00
2022-09-12T02:59:52.948Z,100.00
2022-09-12T03:02:38.287Z,100.00
2022-09-12T03:05:21.729Z,100.00
2022-09-12T03:08:13.381Z,100.00
2022-09-12T03:11:02.900Z,100.00
2022-09-12T03:13:54.294Z,100.00
2022-09-12T03:16:43.680Z,100.00
2022-09-12T03:19:29.427Z,100.00
2022-09-12T03:22:15.732Z,100.00
2022-09-12T03:25:02.850Z,100.00
2022-09-12T03:27:38.942Z,100.00
2022-09-12T03:30:06.767Z,100.00
2022-09-12T03:32:50.159Z,99.65
2022-09-12T03:35:22.825Z,100.00
2022-09-12T03:37:51.039Z,100.00
2022-09-12T03:40:17.847Z,100.00
2022-09-12T03:42:44.588Z,100.00
2022-09-12T03:45:11.914Z,100.00
2022-09-12T03:47:38.463Z,100.00
2022-09-12T03:50:06.550Z,100.00
2022-09-12T03:52:33.590Z,100.00
2022-09-12T03:55:00.374Z,100.00
2022-09-12T03:57:26.895Z,100.00
2022-09-12T03:59:53.391Z,100.00
2022-09-12T04:02:20.026Z,100.00
2022-09-12T04:04:48.768Z,100.00
2022-09-12T04:07:16.732Z,100.00
2022-09-12T04:09:43.775Z,100.00
2022-09-12T04:12:10.341Z,100.00
2022-09-12T04:14:36.954Z,100.00
2022-09-12T04:17:03.742Z,100.00
2022-09-12T04:19:30.265Z,100.00
2022-09-12T04:21:57.003Z,100.00
2022-09-12T04:24:23.539Z,100.00
2022-09-12T04:26:50.210Z,100.00
2022-09-12T04:29:16.803Z,100.00
2022-09-12T04:31:43.550Z,100.00
2022-09-12T04:34:10.422Z,100.00
2022-09-12T04:36:37.827Z,100.00
2022-09-12T04:39:05.492Z,100.00
2022-09-12T04:41:38.444Z,100.00
2022-09-12T04:44:14.436Z,100.00
2022-09-12T04:46:45.783Z,100.00
2022-09-12T04:49:14.065Z,100.00
2022-09-12T04:51:42.446Z,100.00
2022-09-12T04:54:15.937Z,100.00
2022-09-12T04:56:44.587Z,100.00
2022-09-12T04:59:13.247Z,100.00
2022-09-12T05:01:40.369Z,100.00
2022-09-12T05:04:07.429Z,100.00
2022-09-12T05:06:36.091Z,100.00
2022-09-12T05:09:05.825Z,100.00
2022-09-12T05:12:02.823Z,100.00
2022-09-12T05:14:24.376Z,100.00
2022-09-12T05:16:51.134Z,100.00
2022-09-12T05:19:17.750Z,100.00
2022-09-12T05:21:44.451Z,100.00
2022-09-12T05:24:11.588Z,100.00
2022-09-12T05:26:39.231Z,100.00
2022-09-12T05:29:07.092Z,100.00
2022-09-12T05:31:34.887Z,100.00
2022-09-12T05:34:05.885Z,100.00
2022-09-12T05:36:32.933Z,100.00
2022-09-12T05:39:00.648Z,100.00
2022-09-12T05:41:30.728Z,100.00
2022-09-12T05:43:59.913Z,100.00
2022-09-12T05:46:29.490Z,100.00
2022-09-12T05:48:56.850Z,100.00
2022-09-12T05:51:29.122Z,100.00
2022-09-12T05:53:57.682Z,100.00
2022-09-12T05:56:27.363Z,100.00
2022-09-12T05:59:14.631Z,100.00
2022-09-12T06:01:41.644Z,100.00
2022-09-12T06:04:09.776Z,100.00
2022-09-12T06:06:41.511Z,100.00
2022-09-12T06:09:08.499Z,100.00
2022-09-12T06:11:37.365Z,100.00
2022-09-12T06:14:04.648Z,100.00
2022-09-12T06:16:33.317Z,100.00
2022-09-12T06:19:02.410Z,100.00
2022-09-12T06:21:31.215Z,100.00
2022-09-12T06:23:58.979Z,100.00
2022-09-12T06:26:28.027Z,100.00
2022-09-12T06:28:56.083Z,100.00
2022-09-12T06:31:36.450Z,100.00
2022-09-12T06:34:05.914Z,100.00
2022-09-12T06:36:37.788Z,100.00
2022-09-12T06:39:09.917Z,100.00
2022-09-12T06:41:39.408Z,100.00
2022-09-12T06:44:16.177Z,100.00
2022-09-12T06:46:43.167Z,100.00
2022-09-12T06:49:10.076Z,100.00
2022-09-12T06:51:37.877Z,100.00
2022-09-12T06:54:05.483Z,100.00
2022-09-12T06:56:32.100Z,100.00
2022-09-12T06:58:59.471Z,100.00
2022-09-12T07:01:31.067Z,100.00
2022-09-12T07:04:00.388Z,100.00
2022-09-12T07:06:31.892Z,100.00
2022-09-12T07:09:00.117Z,100.00
2022-09-12T07:11:30.544Z,100.00
2022-09-12T07:13:59.172Z,100.00
2022-09-12T07:16:25.848Z,100.00
2022-09-12T07:18:54.967Z,100.00
2022-09-12T07:21:21.900Z,100.00
2022-09-12T07:23:49.266Z,100.00
2022-09-12T07:26:16.587Z,100.00
2022-09-12T07:28:43.780Z,100.00
2022-09-12T07:31:16.406Z,100.00
2022-09-12T07:33:44.112Z,100.00
2022-09-12T07:36:14.145Z,100.00
2022-09-12T07:38:41.348Z,100.00
2022-09-12T07:41:12.790Z,100.00
2022-09-12T07:43:39.488Z,100.00
2022-09-12T07:46:06.596Z,100.00
2022-09-12T07:48:33.897Z,100.00
2022-09-12T07:51:02.152Z,100.00
2022-09-12T07:53:34.409Z,100.00
2022-09-12T07:56:01.083Z,100.00
2022-09-12T07:58:27.615Z,100.00
2022-09-12T08:00:54.167Z,100.00
2022-09-12T08:03:20.918Z,100.00
2022-09-12T08:05:47.400Z,100.00
2022-09-12T08:08:14.009Z,100.00
2022-09-12T08:10:40.518Z,99.54
2022-09-12T08:13:10.644Z,99.46
2022-09-12T08:15:37.451Z,99.56
2022-09-12T08:18:04.197Z,99.34
2022-09-12T08:20:31.019Z,98.82
2022-09-12T08:22:57.535Z,98.76
2022-09-12T08:25:24.208Z,98.48
2022-09-12T08:27:50.745Z,98.35
2022-09-12T08:30:17.376Z,98.06
2022-09-12T08:32:43.943Z,98.24
2022-09-12T08:35:10.497Z,97.38
2022-09-12T08:37:37.073Z,96.68
2022-09-12T08:40:06.776Z,97.02
2022-09-12T08:43:14.230Z,96.55
2022-09-12T08:45:54.517Z,96.53
2022-09-12T08:48:21.291Z,96.43
2022-09-12T08:50:49.967Z,95.73
2022-09-12T08:53:21.492Z,94.61
2022-09-12T08:55:56.368Z,95.43
2022-09-12T08:58:24.867Z,94.41
2022-09-12T09:01:19.839Z,94.59
2022-09-12T09:04:20.665Z,91.24
2022-09-12T09:06:53.189Z,92.82
2022-09-12T09:09:57.372Z,92.20
2022-09-12T09:12:38.669Z,91.81
2022-09-12T09:15:27.006Z,90.87
2022-09-12T09:18:10.849Z,90.54
2022-09-12T09:20:47.207Z,90.87
2022-09-12T09:23:21.939Z,85.11
2022-09-12T09:26:26.500Z,89.50
2022-09-12T09:29:04.883Z,90.70
2022-09-12T09:31:37.674Z,87.13
2022-09-12T09:34:14.051Z,89.42
2022-09-12T09:36:57.872Z,83.78
2022-09-12T09:39:28.792Z,90.68
2022-09-12T09:42:10.445Z,87.42
2022-09-12T09:44:37.917Z,86.26
2022-09-12T09:47:05.340Z,84.61
2022-09-12T09:49:34.421Z,87.62
2022-09-12T09:52:02.518Z,87.94
2022-09-12T09:54:44.606Z,85.92
2022-09-12T09:57:44.624Z,80.44
2022-09-12T10:00:29.820Z,85.33
2022-09-12T10:03:14.929Z,84.56
2022-09-12T10:05:48.632Z,81.69
2022-09-12T10:08:32.645Z,84.91
2022-09-12T10:11:20.844Z,83.94
2022-09-12T10:13:51.175Z,84.58
2022-09-12T10:16:22.615Z,84.94
2022-09-12T10:18:52.454Z,84.95
2022-09-12T10:21:29.626Z,80.71
2022-09-12T10:24:06.611Z,80.18
2022-09-12T10:26:37.568Z,82.50
2022-09-12T10:29:16.107Z,82.40
2022-09-12T10:31:55.596Z,78.56
2022-09-12T10:34:31.118Z,81.46
2022-09-12T10:37:04.585Z,81.82
2022-09-12T10:39:33.441Z,83.42
2022-09-12T10:42:01.431Z,80.78
2022-09-12T10:44:31.014Z,81.92
2022-09-12T10:46:59.031Z,81.22
2022-09-12T10:49:29.617Z,81.11
2022-09-12T10:51:59.695Z,78.10
2022-09-12T10:54:28.595Z,77.97
2022-09-12T10:57:06.829Z,80.33
2022-09-12T11:00:27.763Z,75.24
2022-09-12T11:02:59.414Z,81.39
2022-09-12T11:05:44.072Z,78.43
2022-09-12T11:08:13.259Z,79.58
2022-09-12T11:10:54.541Z,80.38
2022-09-12T11:13:29.983Z,72.18
2022-09-12T11:16:11.623Z,77.81
2022-09-12T11:18:45.018Z,75.14
2022-09-12T11:21:23.839Z,72.20
2022-09-12T11:24:12.939Z,73.27
2022-09-12T11:26:53.331Z,76.49
2022-09-12T11:29:47.252Z,73.38
2022-09-12T11:32:16.767Z,69.37
2022-09-12T11:35:31.289Z,75.78
2022-09-12T11:38:16.333Z,77.59
2022-09-12T11:40:46.484Z,77.05
2022-09-12T11:43:25.968Z,74.15
2022-09-12T11:45:53.346Z,75.69
2022-09-12T11:48:49.197Z,69.52
2022-09-12T11:51:33.148Z,77.20
2022-09-12T11:54:14.099Z,70.97
2022-09-12T11:56:46.336Z,67.52
2022-09-12T11:59:26.024Z,74.41
2022-09-12T12:01:59.677Z,72.68
2022-09-12T12:04:37.070Z,68.05
2022-09-12T12:07:11.378Z,71.74
2022-09-12T12:09:50.316Z,70.37
2022-09-12T12:12:25.008Z,73.85
2022-09-12T12:14:54.834Z,70.07
2022-09-12T12:17:24.429Z,70.67
2022-09-12T12:20:05.563Z,70.28
2022-09-12T12:22:34.272Z,74.34
2022-09-12T12:25:12.802Z,68.31
2022-09-12T12:27:47.454Z,72.46
2022-09-12T12:30:29.408Z,66.95
2022-09-12T12:33:13.001Z,57.87
2022-09-12T12:35:46.834Z,71.11
2022-09-12T12:38:32.115Z,63.80
2022-09-12T12:41:17.032Z,67.37
2022-09-12T12:43:51.504Z,66.81
2022-09-12T12:46:26.848Z,61.67
2022-09-12T12:48:59.951Z,66.55
2022-09-12T12:51:31.864Z,67.98
2022-09-12T12:54:01.177Z,72.15
2022-09-12T12:56:42.419Z,69.31
2022-09-12T12:59:17.936Z,64.17
2022-09-12T13:01:51.538Z,69.19
2022-09-12T13:04:24.777Z,65.39
2022-09-12T13:07:07.206Z,67.96
2022-09-12T13:09:39.653Z,63.85
2022-09-12T13:12:06.264Z,69.85
2022-09-12T13:14:53.977Z,61.54
2022-09-12T13:17:35.690Z,68.67
2022-09-12T13:20:29.729Z,66.44
2022-09-12T13:22:57.746Z,69.37
2022-09-12T13:25:37.069Z,67.32
2022-09-12T13:28:11.500Z,62.52
2022-09-12T13:30:42.626Z,64.67
2022-09-12T13:33:23.603Z,55.78
2022-09-12T13:35:59.025Z,59.84
2022-09-12T13:38:36.963Z,62.54
2022-09-12T13:41:45.460Z,61.28
2022-09-12T13:44:15.987Z,70.08
2022-09-12T13:46:42.798Z,70.60
2022-09-12T13:49:28.259Z,58.41
2022-09-12T13:52:23.077Z,65.08
2022-09-12T13:54:54.121Z,70.00
2022-09-12T13:57:30.626Z,61.73
2022-09-12T13:59:58.978Z,70.07
2022-09-12T14:02:28.844Z,65.03
2022-09-12T14:05:11.480Z,68.38
2022-09-12T14:07:56.123Z,70.11
2022-09-12T14:10:33.572Z,66.08
2022-09-12T14:13:02.800Z,66.46
2022-09-12T14:15:32.253Z,69.33
2022-09-12T14:18:01.526Z,70.04
2022-09-12T14:20:33.807Z,60.00
2022-09-12T14:23:04.238Z,67.90
2022-09-12T14:25:41.104Z,63.29
2022-09-12T14:28:13.560Z,66.23
2022-09-12T14:30:40.836Z,67.29
2022-09-12T14:33:10.178Z,68.20
2022-09-12T14:35:44.502Z,68.29
2022-09-12T14:38:16.860Z,66.97
2022-09-12T14:41:10.784Z,63.07
2022-09-12T14:43:42.544Z,67.77
2022-09-12T14:46:39.698Z,55.67
2022-09-12T14:49:21.111Z,60.56
2022-09-12T14:51:51.501Z,66.38
2022-09-12T14:54:40.184Z,55.08
2022-09-12T14:57:28.075Z,67.15
2022-09-12T15:00:09.570Z,62.47
2022-09-12T15:02:36.109Z,68.52
2022-09-12T15:05:08.952Z,65.27
2022-09-12T15:07:41.068Z,62.00
2022-09-12T15:10:27.934Z,60.04
2022-09-12T15:13:09.482Z,61.22
2022-09-12T15:15:38.122Z,66.77
2022-09-12T15:18:06.818Z,67.16
2022-09-12T15:20:36.445Z,67.75
2022-09-12T15:23:03.303Z,67.13
2022-09-12T15:25:29.861Z,67.65
2022-09-12T15:27:56.518Z,68.16
2022-09-12T15:30:23.092Z,61.04
2022-09-12T15:32:49.714Z,68.27
2022-09-12T15:35:18.025Z,67.35
2022-09-12T15:37:45.275Z,67.45
2022-09-12T15:40:13.198Z,68.43
2022-09-12T15:42:40.250Z,67.34
2022-09-12T15:45:27.736Z,66.54
2022-09-12T15:47:55.374Z,68.38
2022-09-12T15:50:22.104Z,69.07
2022-09-12T15:52:48.741Z,66.78
2022-09-12T15:55:18.736Z,66.45
2022-09-12T15:57:45.799Z,67.87
2022-09-12T16:00:14.156Z,64.33
2022-09-12T16:02:40.985Z,67.72
2022-09-12T16:05:17.331Z,66.93
2022-09-12T16:07:44.651Z,66.95
2022-09-12T16:10:16.378Z,66.69
2022-09-12T16:12:43.345Z,67.74
2022-09-12T16:15:16.896Z,67.81
2022-09-12T16:17:43.427Z,66.94
2022-09-12T16:20:10.479Z,68.69
2022-09-12T16:22:37.482Z,68.05
2022-09-12T16:25:05.050Z,67.94
2022-09-12T16:27:32.567Z,68.60
2022-09-12T16:29:59.273Z,61.63
2022-09-12T16:32:25.879Z,67.85
2022-09-12T16:34:52.889Z,68.64
2022-09-12T16:37:19.458Z,68.00
2022-09-12T16:39:46.440Z,68.61
2022-09-12T16:42:13.113Z,68.89
2022-09-12T16:44:39.604Z,69.76
2022-09-12T16:47:07.142Z,69.13
2022-09-12T16:49:33.715Z,69.57
2022-09-12T16:52:00.288Z,69.59
2022-09-12T16:54:26.814Z,67.94
2022-09-12T16:56:53.315Z,69.58
2022-09-12T16:59:19.837Z,68.34
2022-09-12T17:01:46.526Z,69.43
2022-09-12T17:04:13.152Z,69.30
2022-09-12T17:06:40.049Z,67.37
2022-09-12T17:09:06.625Z,69.40
2022-09-12T17:11:36.468Z,69.01
2022-09-12T17:14:06.977Z,69.72
2022-09-12T17:16:36.504Z,69.65
2022-09-12T17:19:03.430Z,69.93
2022-09-12T17:21:30.133Z,69.91
2022-09-12T17:23:56.856Z,70.66
2022-09-12T17:26:23.439Z,70.29
2022-09-12T17:28:50.161Z,70.20
2022-09-12T17:31:17.339Z,70.83
2022-09-12T17:33:43.929Z,70.61
2022-09-12T17:36:16.370Z,70.73
2022-09-12T17:38:44.825Z,70.96
2022-09-12T17:41:23.703Z,70.59
2022-09-12T17:43:58.886Z,70.68
2022-09-12T17:46:32.861Z,70.73
2022-09-12T17:49:01.047Z,71.38
2022-09-12T17:51:31.200Z,70.84
2022-09-12T17:53:59.240Z,70.91
2022-09-12T17:56:27.998Z,70.92
2022-09-12T17:58:56.430Z,71.18
2022-09-12T18:01:42.106Z,71.48
2022-09-12T18:04:08.849Z,71.05
2022-09-12T18:06:35.632Z,71.64
2022-09-12T18:09:05.406Z,71.25
2022-09-12T18:11:32.997Z,71.27
2022-09-12T18:14:00.117Z,71.60
2022-09-12T18:16:28.538Z,72.23
2022-09-12T18:18:55.685Z,71.84
2022-09-12T18:21:22.252Z,71.88
2022-09-12T18:23:48.814Z,72.41
2022-09-12T18:26:15.457Z,72.06
2022-09-12T18:28:44.235Z,72.50
2022-09-12T18:31:19.805Z,72.42
2022-09-12T18:33:47.211Z,72.55
2022-09-12T18:36:15.670Z,72.41
2022-09-12T18:38:43.258Z,72.99
2022-09-12T18:41:12.368Z,73.07
2022-09-12T18:43:39.448Z,72.94
2022-09-12T18:46:12.548Z,73.46
2022-09-12T18:48:39.230Z,73.11
2022-09-12T18:51:08.657Z,73.72
2022-09-12T18:53:36.770Z,73.78
2022-09-12T18:56:06.367Z,73.53
2022-09-12T18:58:32.856Z,73.32
2022-09-12T19:00:59.413Z,73.69
2022-09-12T19:03:26.318Z,73.80
2022-09-12T19:05:53.326Z,74.38
2022-09-12T19:08:19.893Z,73.79
2022-09-12T19:10:55.051Z,73.86
2022-09-12T19:13:21.846Z,74.31
2022-09-12T19:15:48.449Z,73.85
2022-09-12T19:18:15.790Z,74.04
2022-09-12T19:20:42.344Z,74.20
2022-09-12T19:23:08.970Z,74.15
2022-09-12T19:25:35.546Z,74.13
2022-09-12T19:28:02.320Z,74.14
2022-09-12T19:30:28.889Z,74.25
2022-09-12T19:32:55.483Z,74.29
2022-09-12T19:35:23.083Z,74.33
2022-09-12T19:37:49.825Z,74.68
2022-09-12T19:40:16.442Z,74.73
2022-09-12T19:42:43.029Z,74.85
2022-09-12T19:45:10.365Z,74.65
2022-09-12T19:47:38.219Z,75.07
2022-09-12T19:50:05.399Z,74.72
2022-09-12T19:52:31.929Z,75.19
2022-09-12T19:54:58.501Z,75.16
2022-09-12T19:57:25.022Z,75.32
2022-09-12T19:59:51.577Z,75.47
2022-09-12T20:02:18.387Z,76.18
2022-09-12T20:04:45.415Z,75.74
2022-09-12T20:07:11.960Z,76.65
2022-09-12T20:09:38.585Z,75.79
2022-09-12T20:12:05.527Z,75.95
2022-09-12T20:14:32.137Z,75.83
2022-09-12T20:16:58.682Z,75.88
2022-09-12T20:19:25.506Z,76.30
2022-09-12T20:21:52.097Z,75.81
2022-09-12T20:24:18.692Z,76.71
2022-09-12T20:26:45.381Z,76.44
2022-09-12T20:29:12.129Z,76.68
2022-09-12T20:31:40.951Z,77.06
2022-09-12T20:34:10.529Z,77.09
2022-09-12T20:36:37.074Z,76.29
2022-09-12T20:39:03.769Z,76.85
2022-09-12T20:41:33.268Z,76.76
2022-09-12T20:44:00.135Z,77.08
2022-09-12T20:46:28.086Z,77.04
2022-09-12T20:48:55.089Z,76.76
2022-09-12T20:51:22.546Z,77.63
2022-09-12T20:53:53.416Z,77.62
2022-09-12T20:56:20.298Z,77.25
2022-09-12T20:58:46.887Z,76.40
2022-09-12T21:01:15.976Z,76.72
2022-09-12T21:03:43.969Z,76.93
2022-09-12T21:06:14.794Z,76.44
2022-09-12T21:08:41.386Z,77.81
2022-09-12T21:11:07.999Z,76.96
2022-09-12T21:13:35.152Z,77.02
2022-09-12T21:16:21.998Z,77.68
2022-09-12T21:18:54.999Z,78.05
2022-09-12T21:21:22.080Z,77.03
2022-09-12T21:23:50.614Z,77.02
2022-09-12T21:26:18.319Z,77.97
2022-09-12T21:28:44.995Z,77.42
2022-09-12T21:31:11.606Z,77.04
2022-09-12T21:33:38.346Z,78.50
2022-09-12T21:36:06.681Z,77.51
2022-09-12T21:38:33.896Z,77.46
2022-09-12T21:41:15.034Z,77.65
2022-09-12T21:43:43.227Z,77.22
2022-09-12T21:46:11.060Z,76.94
2022-09-12T21:48:37.778Z,77.34
2022-09-12T21:51:04.654Z,77.26
2022-09-12T21:53:32.147Z,77.90
2022-09-12T21:56:07.857Z,80.20
2022-09-12T21:58:34.943Z,78.43
2022-09-12T22:01:02.019Z,78.95
2022-09-12T22:03:29.258Z,78.88
2022-09-12T22:06:00.533Z,78.25
2022-09-12T22:08:29.374Z,77.98
2022-09-12T22:11:07.995Z,78.78
2022-09-12T22:13:35.611Z,78.03
2022-09-12T22:16:03.519Z,78.25
2022-09-12T22:18:32.422Z,79.22
2022-09-12T22:21:05.000Z,79.22
2022-09-12T22:23:50.823Z,79.42
2022-09-12T22:26:17.546Z,78.19
2022-09-12T22:28:44.166Z,78.88
2022-09-12T22:31:12.654Z,79.37
2022-09-12T22:33:40.112Z,78.73
2022-09-12T22:36:07.376Z,79.54
2022-09-12T22:38:34.002Z,79.41
2022-09-12T22:41:10.361Z,79.27
2022-09-12T22:43:37.624Z,79.09
2022-09-12T22:46:12.532Z,79.88
2022-09-12T22:48:39.809Z,79.74
2022-09-12T22:51:07.418Z,79.58
2022-09-12T22:53:35.230Z,79.35
2022-09-12T22:56:02.388Z,79.41
2022-09-12T22:58:29.029Z,79.38
2022-09-12T23:00:55.527Z,79.25
2022-09-12T23:03:23.663Z,79.08
2022-09-12T23:05:50.226Z,78.77
2022-09-12T23:08:19.318Z,78.75
2022-09-12T23:10:46.049Z,78.79
2022-09-12T23:13:12.885Z,78.88
2022-09-12T23:15:39.479Z,79.03
2022-09-12T23:18:06.005Z,78.88
2022-09-12T23:20:59.587Z,81.36
2022-09-12T23:23:26.659Z,78.64
2022-09-12T23:26:05.054Z,79.70
2022-09-12T23:28:32.237Z,79.21
2022-09-12T23:31:00.264Z,80.26
2022-09-12T23:33:30.698Z,79.67
2022-09-12T23:36:01.793Z,79.61
2022-09-12T23:38:32.471Z,79.17
2022-09-12T23:41:00.335Z,79.49
2022-09-12T23:43:27.601Z,79.54
2022-09-12T23:45:54.183Z,79.97
2022-09-12T23:48:20.901Z,80.02
2022-09-12T23:50:48.780Z,79.66
2022-09-12T23:53:17.645Z,79.71
2022-09-12T23:55:47.865Z,79.79
2022-09-12T23:58:16.578Z,80.38
